createdAt,value
2022-09-21T00:03:06.309Z,25.33
2022-09-21T00:06:22.350Z,22.03
2022-09-21T00:09:34.023Z,30.80
2022-09-21T00:12:47.496Z,28.18
2022-09-21T00:15:59.773Z,25.28
2022-09-21T00:19:11.927Z,23.43
2022-09-21T00:22:23.683Z,25.05
2022-09-21T00:25:35.778Z,23.00
2022-09-21T00:28:49.395Z,24.68
2022-09-21T00:32:01.080Z,22.15
2022-09-21T00:35:14.707Z,21.43
2022-09-21T00:38:26.435Z,23.50
2022-09-21T00:41:40.067Z,21.73
2022-09-21T00:44:52.086Z,21.90
2022-09-21T00:48:04.638Z,21.93
2022-09-21T00:51:16.537Z,26.40
2022-09-21T00:54:33.719Z,22.93
2022-09-21T00:57:45.654Z,19.85
2022-09-21T01:00:57.880Z,23.30
2022-09-21T01:04:11.911Z,27.05
2022-09-21T01:07:28.627Z,23.78
2022-09-21T01:10:48.358Z,22.88
2022-09-21T01:14:15.421Z,23.18
2022-09-21T01:17:37.567Z,22.30
2022-09-21T01:21:15.612Z,22.95
2022-09-21T01:24:52.758Z,21.73
2022-09-21T01:28:29.283Z,22.63
2022-09-21T01:31:46.398Z,24.58
2022-09-21T01:35:02.316Z,24.35
2022-09-21T01:38:21.898Z,26.93
2022-09-21T01:41:37.716Z,22.75
2022-09-21T01:44:51.975Z,21.15
2022-09-21T01:48:06.493Z,21.90
2022-09-21T01:51:22.272Z,23.33
2022-09-21T01:54:39.089Z,20.65
2022-09-21T01:57:56.502Z,19.25
2022-09-21T02:01:09.178Z,22.90
2022-09-21T02:04:21.136Z,20.10
2022-09-21T02:07:33.355Z,24.00
2022-09-21T02:10:49.746Z,22.83
2022-09-21T02:14:02.933Z,21.53
2022-09-21T02:17:26.047Z,22.05
2022-09-21T02:20:42.835Z,24.30
2022-09-21T02:24:00.877Z,24.93
2022-09-21T02:27:18.643Z,26.70
2022-09-21T02:30:33.201Z,24.13
2022-09-21T02:33:55.653Z,26.60
2022-09-21T02:37:12.537Z,25.55
2022-09-21T02:40:32.460Z,27.25
2022-09-21T02:43:51.809Z,32.83
2022-09-21T02:47:08.153Z,26.65
2022-09-21T02:50:25.882Z,29.58
2022-09-21T02:53:41.776Z,30.25
2022-09-21T02:56:55.541Z,28.85
2022-09-21T03:00:08.093Z,30.88
2022-09-21T03:03:26.457Z,30.80
2022-09-21T03:06:38.382Z,30.28
2022-09-21T03:09:50.329Z,31.78
2022-09-21T03:13:05.285Z,30.15
2022-09-21T03:16:17.311Z,33.13
2022-09-21T03:19:29.288Z,28.98
2022-09-21T03:22:41.022Z,33.13
2022-09-21T03:25:56.404Z,29.25
2022-09-21T03:29:08.926Z,31.95
2022-09-21T03:32:21.407Z,28.83
2022-09-21T03:35:33.977Z,30.25
2022-09-21T03:38:45.713Z,25.75
2022-09-21T03:41:59.049Z,30.20
2022-09-21T03:45:13.476Z,31.53
2022-09-21T03:48:25.689Z,31.95
2022-09-21T03:51:37.423Z,33.40
2022-09-21T03:54:49.180Z,32.33
2022-09-21T03:58:01.562Z,29.85
2022-09-21T04:01:13.122Z,32.05
2022-09-21T04:04:24.933Z,31.80
2022-09-21T04:07:40.769Z,31.08
2022-09-21T04:10:52.567Z,39.25
2022-09-21T04:14:05.663Z,33.63
2022-09-21T04:17:17.492Z,31.35
2022-09-21T04:20:29.237Z,38.05
2022-09-21T04:23:41.315Z,32.85
2022-09-21T04:26:53.774Z,30.10
2022-09-21T04:30:07.783Z,31.83
2022-09-21T04:33:20.038Z,30.73
2022-09-21T04:36:36.685Z,33.38
2022-09-21T04:39:48.378Z,31.73
2022-09-21T04:43:01.114Z,26.08
2022-09-21T04:46:18.525Z,27.05
2022-09-21T04:49:30.557Z,26.38
2022-09-21T04:52:42.705Z,25.85
2022-09-21T04:55:55.865Z,32.05
2022-09-21T04:59:07.780Z,24.33
2022-09-21T05:02:19.432Z,32.03
2022-09-21T05:05:32.048Z,27.93
2022-09-21T05:08:59.455Z,30.90
2022-09-21T05:15:22.261Z,30.55
2022-09-21T05:18:33.929Z,29.63
2022-09-21T05:21:46.528Z,34.13
2022-09-21T05:24:58.314Z,31.15
2022-09-21T05:28:12.599Z,32.70
2022-09-21T05:31:40.423Z,29.70
2022-09-21T05:35:01.216Z,27.05
2022-09-21T05:38:17.779Z,25.35
2022-09-21T05:41:31.272Z,33.05
2022-09-21T05:44:44.614Z,38.65
2022-09-21T05:48:10.267Z,33.28
2022-09-21T05:51:28.232Z,35.93
2022-09-21T05:54:53.525Z,31.30
2022-09-21T05:58:15.102Z,32.98
2022-09-21T06:01:38.721Z,30.98
2022-09-21T06:04:54.215Z,32.68
2022-09-21T06:08:06.004Z,35.03
2022-09-21T06:11:18.326Z,35.08
2022-09-21T06:14:29.971Z,31.13
2022-09-21T06:17:41.637Z,37.78
2022-09-21T06:28:52.458Z,30.28
2022-09-21T06:32:05.634Z,38.60
2022-09-21T06:39:17.720Z,31.95
2022-09-21T06:46:47.289Z,30.03
2022-09-21T06:49:58.897Z,32.98
2022-09-21T06:53:11.167Z,31.93
2022-09-21T07:13:10.121Z,29.75
2022-09-21T07:16:22.253Z,28.05
2022-09-21T07:19:34.017Z,26.23
2022-09-21T07:22:45.613Z,26.60
2022-09-21T07:25:57.319Z,26.90
2022-09-21T07:29:09.074Z,27.40
2022-09-21T07:32:21.689Z,25.38
2022-09-21T07:35:33.659Z,24.30
2022-09-21T07:38:47.466Z,29.23
2022-09-21T07:41:59.538Z,30.13
2022-09-21T07:45:13.717Z,29.40
2022-09-21T07:48:25.866Z,24.18
2022-09-21T07:51:37.590Z,25.70
2022-09-21T07:54:49.313Z,26.68
2022-09-21T07:58:15.661Z,22.83
2022-09-21T08:01:28.188Z,22.33
2022-09-21T08:04:40.114Z,20.25
2022-09-21T08:07:53.073Z,20.08
2022-09-21T08:11:11.928Z,20.95
2022-09-21T08:14:26.428Z,21.68
2022-09-21T08:17:38.630Z,21.95
2022-09-21T08:20:50.284Z,17.08
2022-09-21T08:24:02.016Z,17.68
2022-09-21T08:27:13.910Z,20.80
2022-09-21T08:30:27.636Z,17.50
2022-09-21T08:33:39.931Z,16.90
2022-09-21T08:36:55.530Z,14.40
2022-09-21T08:40:06.606Z,18.83
2022-09-21T08:43:22.138Z,15.83
2022-09-21T08:46:36.633Z,16.20
2022-09-21T08:49:54.105Z,15.68
2022-09-21T08:53:11.960Z,15.68
2022-09-21T08:56:36.810Z,18.95
2022-09-21T08:59:39.432Z,16.43
2022-09-21T09:03:09.201Z,61.98
2022-09-21T09:06:27.208Z,16.95
2022-09-21T09:10:10.721Z,16.95
2022-09-21T09:13:40.794Z,16.25
2022-09-21T09:17:01.207Z,14.55
2022-09-21T09:20:21.895Z,15.25
2022-09-21T09:23:38.511Z,14.05
2022-09-21T09:26:54.173Z,17.65
2022-09-21T09:30:12.701Z,15.60
2022-09-21T09:33:28.873Z,12.83
2022-09-21T09:36:57.880Z,16.77
2022-09-21T09:40:00.810Z,16.45
2022-09-21T09:43:17.163Z,32.48
2022-09-21T09:46:36.449Z,12.30
2022-09-21T09:49:57.752Z,12.63
2022-09-21T09:53:15.853Z,9.10
2022-09-21T09:56:28.817Z,10.90
2022-09-21T09:59:49.370Z,11.55
2022-09-21T10:03:02.621Z,11.38
2022-09-21T10:06:22.548Z,10.30
2022-09-21T10:09:39.323Z,8.28
2022-09-21T10:12:55.199Z,6.70
2022-09-21T10:16:14.723Z,7.70
2022-09-21T10:19:30.771Z,6.88
2022-09-21T10:22:47.317Z,6.30
2022-09-21T10:26:09.634Z,4.38
2022-09-21T10:29:47.443Z,6.43
2022-09-21T10:33:04.060Z,6.00
2022-09-21T10:36:33.817Z,7.70
2022-09-21T10:39:52.989Z,4.70
2022-09-21T10:43:06.201Z,13.85
2022-09-21T10:46:20.138Z,7.35
2022-09-21T10:49:37.148Z,7.23
2022-09-21T10:52:51.016Z,7.08
2022-09-21T10:56:16.604Z,6.18
2022-09-21T10:59:31.599Z,7.50
2022-09-21T11:02:46.653Z,4.85
2022-09-21T11:05:59.964Z,6.25
2022-09-21T11:09:16.569Z,5.05
2022-09-21T11:12:51.709Z,7.10
2022-09-21T11:16:08.846Z,5.10
2022-09-21T11:19:29.575Z,5.98
2022-09-21T11:22:47.464Z,5.80
2022-09-21T11:26:05.342Z,7.43
2022-09-21T11:29:23.328Z,5.73
2022-09-21T11:33:00.770Z,6.38
2022-09-21T11:36:20.653Z,6.63
2022-09-21T11:39:39.532Z,7.23
2022-09-21T11:43:03.568Z,8.40
2022-09-21T11:46:24.833Z,6.05
2022-09-21T11:50:30.908Z,10.10
2022-09-21T11:53:57.829Z,8.05
2022-09-21T11:57:17.331Z,7.75
2022-09-21T12:00:29.981Z,8.20
2022-09-21T12:04:13.438Z,7.63
2022-09-21T12:07:53.814Z,6.53
2022-09-21T12:11:14.102Z,7.93
2022-09-21T12:14:33.419Z,9.18
2022-09-21T12:17:55.378Z,7.83
2022-09-21T12:21:13.554Z,9.55
2022-09-21T12:24:31.959Z,8.00
2022-09-21T12:27:48.337Z,9.25
2022-09-21T12:31:03.850Z,9.00
2022-09-21T12:34:20.428Z,8.00
2022-09-21T12:37:47.308Z,8.43
2022-09-21T12:41:04.350Z,7.65
2022-09-21T12:47:44.249Z,7.93
2022-09-21T12:51:05.029Z,8.95
2022-09-21T12:54:21.697Z,5.43
2022-09-21T12:57:58.611Z,4.65
2022-09-21T13:01:06.323Z,5.08
2022-09-21T13:04:49.871Z,5.38
2022-09-21T13:08:16.463Z,7.68
2022-09-21T13:11:29.504Z,8.57
2022-09-21T13:14:46.204Z,6.33
2022-09-21T13:18:22.238Z,7.78
2022-09-21T13:21:36.648Z,4.75
2022-09-21T13:28:46.261Z,5.78
2022-09-21T13:32:04.714Z,10.00
2022-09-21T13:35:55.559Z,15.25
2022-09-21T13:39:26.248Z,7.85
2022-09-21T13:42:55.138Z,7.25
2022-09-21T13:46:07.414Z,9.55
2022-09-21T13:49:31.395Z,6.05
2022-09-21T13:52:50.861Z,6.63
2022-09-21T13:56:10.915Z,8.18
2022-09-21T13:59:30.444Z,24.08
2022-09-21T14:02:46.045Z,47.45
2022-09-21T14:06:03.265Z,14.10
2022-09-21T14:09:27.581Z,9.83
2022-09-21T14:12:45.626Z,5.25
2022-09-21T14:16:09.403Z,7.00
2022-09-21T14:20:11.082Z,5.65
2022-09-21T14:23:36.664Z,7.13
2022-09-21T14:27:19.205Z,8.43
2022-09-21T14:30:34.093Z,7.30
2022-09-21T14:33:55.084Z,9.58
2022-09-21T14:37:13.012Z,9.20
2022-09-21T14:40:31.829Z,6.98
2022-09-21T14:43:45.094Z,8.65
2022-09-21T14:47:28.497Z,4.45
2022-09-21T14:50:45.314Z,3.35
2022-09-21T14:54:22.196Z,1.58
2022-09-21T14:58:02.634Z,57.43
2022-09-21T15:01:46.335Z,5.65
2022-09-21T15:05:30.319Z,2.83
2022-09-21T15:09:09.647Z,2.05
2022-09-21T15:12:27.565Z,6.18
2022-09-21T15:15:48.424Z,4.18
2022-09-21T15:19:20.448Z,3.40
2022-09-21T15:22:33.235Z,3.50
2022-09-21T15:25:46.579Z,2.68
2022-09-21T15:29:18.357Z,2.90
2022-09-21T15:32:31.338Z,6.28
2022-09-21T15:35:43.457Z,5.35
2022-09-21T15:39:00.027Z,5.63
2022-09-21T15:42:31.522Z,3.35
2022-09-21T15:45:55.143Z,3.28
2022-09-21T15:49:09.954Z,3.48
2022-09-21T15:52:32.460Z,5.40
2022-09-21T15:55:47.938Z,2.73
2022-09-21T15:59:09.230Z,2.80
2022-09-21T16:05:38.656Z,4.25
2022-09-21T16:08:50.733Z,4.33
2022-09-21T16:12:03.321Z,2.90
2022-09-21T16:15:33.257Z,3.65
2022-09-21T16:18:55.287Z,4.70
2022-09-21T16:22:14.390Z,6.25
2022-09-21T16:25:38.487Z,5.55
2022-09-21T16:28:50.538Z,4.68
2022-09-21T16:32:34.385Z,3.15
2022-09-21T16:35:48.191Z,3.30
2022-09-21T16:39:00.470Z,4.00
2022-09-21T16:42:15.215Z,3.70
2022-09-21T16:45:32.997Z,1.78
2022-09-21T16:48:44.962Z,1.65
2022-09-21T16:51:58.244Z,1.78
2022-09-21T16:55:11.391Z,2.80
2022-09-21T16:58:24.618Z,2.60
2022-09-21T17:01:36.399Z,1.73
2022-09-21T17:04:49.021Z,2.13
2022-09-21T17:08:03.141Z,3.98
2022-09-21T17:11:18.062Z,3.78
2022-09-21T17:14:35.569Z,3.48
2022-09-21T17:17:47.704Z,5.10
2022-09-21T17:20:59.499Z,4.93
2022-09-21T17:24:27.519Z,2.25
2022-09-21T17:27:29.227Z,3.45
2022-09-21T17:30:42.628Z,2.95
2022-09-21T17:33:57.425Z,4.73
2022-09-21T17:37:10.576Z,8.33
2022-09-21T17:40:25.362Z,3.85
2022-09-21T17:43:47.838Z,5.98
2022-09-21T17:47:07.090Z,6.18
2022-09-21T17:50:30.486Z,6.05
2022-09-21T17:53:43.729Z,9.95
2022-09-21T17:57:01.994Z,7.73
2022-09-21T18:00:23.585Z,11.38
2022-09-21T18:03:41.435Z,17.88
2022-09-21T18:06:54.768Z,9.28
2022-09-21T18:10:08.248Z,9.60
2022-09-21T18:13:31.847Z,10.40
2022-09-21T18:16:53.020Z,11.83
2022-09-21T18:20:15.251Z,17.13
2022-09-21T18:23:40.173Z,12.33
2022-09-21T18:26:54.198Z,12.53
2022-09-21T18:30:08.040Z,14.38
2022-09-21T18:33:24.977Z,14.33
2022-09-21T18:36:43.356Z,14.25
2022-09-21T18:40:02.721Z,15.80
2022-09-21T18:43:26.070Z,15.93
2022-09-21T18:46:50.857Z,15.43
2022-09-21T18:50:10.101Z,13.55
2022-09-21T18:53:30.871Z,15.58
2022-09-21T18:56:47.568Z,16.90
2022-09-21T19:00:01.277Z,14.00
2022-09-21T19:03:19.868Z,14.18
2022-09-21T19:06:46.730Z,16.00
2022-09-21T19:10:10.552Z,16.50
2022-09-21T19:13:40.543Z,17.63
2022-09-21T19:17:04.575Z,16.38
2022-09-21T19:20:46.924Z,18.90
2022-09-21T19:24:12.117Z,17.25
2022-09-21T19:27:33.017Z,16.30
2022-09-21T19:30:46.827Z,18.48
2022-09-21T19:33:59.464Z,20.38
2022-09-21T19:37:12.039Z,16.13
2022-09-21T19:40:27.928Z,18.55
2022-09-21T20:01:22.335Z,18.38
2022-09-21T20:04:40.684Z,19.63
2022-09-21T20:07:59.163Z,31.73
2022-09-21T20:15:46.735Z,15.45
2022-09-21T20:19:03.904Z,16.05
2022-09-21T20:22:21.550Z,17.73
2022-09-21T20:25:38.685Z,17.45
2022-09-21T20:32:06.773Z,18.58
2022-09-21T20:35:24.364Z,20.35
2022-09-21T20:38:37.258Z,20.85
2022-09-21T20:41:49.697Z,17.60
2022-09-21T20:45:02.547Z,19.20
2022-09-21T20:48:21.349Z,20.55
2022-09-21T20:51:33.353Z,21.48
2022-09-21T20:54:49.015Z,20.78
2022-09-21T20:57:59.634Z,20.20
2022-09-21T21:01:12.856Z,21.05
2022-09-21T21:04:24.663Z,20.98
2022-09-21T21:07:37.196Z,22.80
2022-09-21T21:10:53.450Z,21.68
2022-09-21T21:14:05.512Z,22.97
2022-09-21T21:17:18.546Z,22.83
2022-09-21T21:20:30.968Z,24.10
2022-09-21T21:23:53.473Z,22.90
2022-09-21T21:27:05.208Z,25.35
2022-09-21T21:30:19.271Z,22.20
2022-09-21T21:33:31.076Z,25.83
2022-09-21T21:36:43.133Z,24.93
2022-09-21T21:39:55.026Z,26.18
2022-09-21T21:43:06.746Z,24.68
2022-09-21T21:46:18.531Z,29.78
2022-09-21T21:49:31.341Z,22.85
2022-09-21T21:52:45.150Z,22.10
2022-09-21T21:55:59.080Z,27.08
2022-09-21T21:59:15.397Z,22.88
2022-09-21T22:02:24.924Z,23.28
2022-09-21T22:05:38.373Z,29.58
2022-09-21T22:08:50.128Z,27.13
2022-09-21T22:12:03.933Z,26.35
2022-09-21T22:15:18.827Z,25.33
2022-09-21T22:18:32.614Z,29.78
2022-09-21T22:21:53.187Z,26.38
2022-09-21T22:28:11.459Z,25.83
2022-09-21T22:31:27.042Z,29.98
2022-09-21T22:34:40.030Z,31.90
2022-09-21T22:37:52.832Z,31.03
2022-09-21T22:41:10.871Z,28.38
2022-09-21T22:44:22.798Z,28.68
2022-09-21T22:47:34.378Z,28.23
2022-09-21T22:50:48.976Z,32.48
2022-09-21T22:54:01.610Z,27.08
2022-09-21T22:57:14.639Z,28.58
2022-09-21T23:00:26.378Z,31.05
2022-09-21T23:03:38.461Z,30.28
2022-09-21T23:06:52.189Z,30.08
2022-09-21T23:10:03.858Z,28.78
2022-09-21T23:13:16.049Z,32.03
2022-09-21T23:16:28.749Z,31.13
2022-09-21T23:19:40.597Z,31.98
2022-09-21T23:22:52.177Z,32.43
2022-09-21T23:26:13.205Z,32.25
2022-09-21T23:29:25.364Z,29.80
2022-09-21T23:32:36.980Z,30.63
2022-09-21T23:35:49.834Z,28.70
2022-09-21T23:39:02.236Z,32.58
2022-09-21T23:42:14.330Z,31.20
2022-09-21T23:45:25.994Z,31.05
2022-09-21T23:48:38.688Z,38.05
2022-09-21T23:51:50.384Z,32.68
2022-09-21T23:55:01.897Z,29.63
2022-09-21T23:58:15.515Z,34.25
